Flight Track Log - Related Links

Times and Time Zones

All times are in EDT time to prevent confusion due to time zone crossing. See the 9Y-BGI flight status page for this flight to view local times or setup timezone preferences in your user account.

Time Position Orientation Groundspeed Altitude Reporting Facility
EDT Latitude Longitude Course Direction KTS MPH feet Rate Location/Type
Thu 11:31:00 AM 18.0501 -77.0127 298° West  Level Estimated
Thu 11:32:00 AM 18.0787 -77.0691 298° West  Level Estimated
Thu 11:33:00 AM 18.1073 -77.1255 298° West  Level Estimated
Thu 11:34:00 AM 18.1358 -77.1819 298° West  Level Estimated
Thu 11:35:00 AM 18.1643 -77.2383 298° West  Level Estimated
Thu 11:36:00 AM 18.1929 -77.2947 298° West  Level Estimated
Thu 11:37:00 AM 18.2213 -77.3512 298° West  Level Estimated
Thu 11:38:00 AM 18.2498 -77.4076 298° West  Level Estimated
Thu 11:39:00 AM 18.2783 -77.4641 298° West  Level Estimated
Thu 11:40:00 AM 18.3067 -77.5206 298° West  Level Estimated
Thu 11:41:00 AM 18.3351 -77.5771 298° West  Level Estimated
Thu 11:42:00 AM 18.3636 -77.6337 298° West  Level Estimated
Thu 11:43:00 AM 18.3920 -77.6902 298° West  Level Estimated
Thu 11:44:00 AM 18.4203 -77.7468 298° West  Level Estimated
Thu 11:45:00 AM 18.4487 -77.8034 298° West  Level Estimated
Thu 11:46:00 AM 18.4770 -77.8600 298° West  Level Estimated
Thu 11:47:00 AM 18.5037 -77.9134 298° West  Level Estimated
Thu 11:48:00 AM 18.5037 -77.9134 148° Southeast  Level Estimated
Thu 11:49:00 AM 18.5037 -77.9134 148° Southeast  Level Estimated
Thu 11:50:00 AM 18.5037 -77.9134 148° Southeast  Level Estimated
Thu 11:51:00 AM 18.5037 -77.9134 148° Southeast  Level Estimated
Thu 11:52:00 AM 18.5037 -77.9134 148° Southeast  Level Estimated
Thu 11:53:00 AM 18.5037 -77.9134 148° Southeast  Level Estimated
Thu 11:54:00 AM 18.5037 -77.9134 148° Southeast  Level Estimated
Thu 11:55:00 AM 18.5037 -77.9134 148° Southeast  Level Estimated
Thu 11:56:00 AM 18.5037 -77.9134 148° Southeast  Level Estimated
Thu 11:57:00 AM 18.5037 -77.9134 148° Southeast  Level Estimated
Thu 11:58:00 AM 18.5037 -77.9134 148° Southeast  Level Estimated
Thu 11:59:00 AM 18.5037 -77.9134 148° Southeast  Level Estimated
Thu 12:00:00 PM 18.5037 -77.9134 148° Southeast  Level Estimated
Thu 12:01:00 PM 18.5037 -77.9134 148° Southeast  Level Estimated

Login

Don't have an account? Register now (free) for customized features, flight alerts, and more!